Aviation Digital Data Service (ADDS)

Output produced by TAFs form (1651 UTC 29 August 2015)
found at http://aviationweather.gov/adds/tafs/
 
KMTJ 291120Z 2912/3012 17007KT P6SM FEW110 
     FM291500 VRB03KT P6SM FEW110 SCT250 
     FM291800 33006KT P6SM FEW110 SCT250 
     FM292200 20008KT P6SM FEW110 SCT250 
     FM300200 14007KT P6SM SCT200